sensor_id;sensor_type;location;lat;lon;timestamp;temperature;humidity
429;DHT22;201;48.758;9.290;2023-07-31T00:00:23;15.90;1.00
429;DHT22;201;48.758;9.290;2023-07-31T00:02:48;15.80;1.00
429;DHT22;201;48.758;9.290;2023-07-31T00:05:14;15.70;1.00
429;DHT22;201;48.758;9.290;2023-07-31T00:07:39;15.70;1.00
429;DHT22;201;48.758;9.290;2023-07-31T00:10:05;15.60;1.00
429;DHT22;201;48.758;9.290;2023-07-31T00:12:31;15.50;1.00
429;DHT22;201;48.758;9.290;2023-07-31T00:14:56;15.50;1.00
429;DHT22;201;48.758;9.290;2023-07-31T00:17:22;15.50;1.00
429;DHT22;201;48.758;9.290;2023-07-31T00:19:47;15.40;1.00
429;DHT22;201;48.758;9.290;2023-07-31T00:22:16;15.30;1.00
429;DHT22;201;48.758;9.290;2023-07-31T00:24:41;15.20;1.00
429;DHT22;201;48.758;9.290;2023-07-31T00:27:07;15.10;1.00
429;DHT22;201;48.758;9.290;2023-07-31T00:29:32;15.00;1.00
429;DHT22;201;48.758;9.290;2023-07-31T00:31:58;14.90;1.00
429;DHT22;201;48.758;9.290;2023-07-31T00:34:23;14.90;1.00
429;DHT22;201;48.758;9.290;2023-07-31T00:36:49;14.70;1.00
429;DHT22;201;48.758;9.290;2023-07-31T00:39:14;14.70;1.00
429;DHT22;201;48.758;9.290;2023-07-31T00:41:39;14.60;1.00
429;DHT22;201;48.758;9.290;2023-07-31T00:44:05;14.50;1.00
429;DHT22;201;48.758;9.290;2023-07-31T00:46:30;14.50;1.00
429;DHT22;201;48.758;9.290;2023-07-31T00:48:56;14.50;1.00
429;DHT22;201;48.758;9.290;2023-07-31T00:51:22;14.40;1.00
429;DHT22;201;48.758;9.290;2023-07-31T00:53:48;14.40;1.00
429;DHT22;201;48.758;9.290;2023-07-31T00:56:13;14.30;1.00
429;DHT22;201;48.758;9.290;2023-07-31T00:58:39;14.30;1.00
429;DHT22;201;48.758;9.290;2023-07-31T01:01:06;14.20;1.00
429;DHT22;201;48.758;9.290;2023-07-31T01:03:31;14.20;1.00
429;DHT22;201;48.758;9.290;2023-07-31T01:06:25;14.20;1.00
429;DHT22;201;48.758;9.290;2023-07-31T01:09:04;14.20;1.00
429;DHT22;201;48.758;9.290;2023-07-31T01:11:46;14.20;1.00
429;DHT22;201;48.758;9.290;2023-07-31T01:14:13;14.30;1.00
429;DHT22;201;48.758;9.290;2023-07-31T01:16:38;14.10;1.60
429;DHT22;201;48.758;9.290;2023-07-31T01:19:05;14.10;1.80
429;DHT22;201;48.758;9.290;2023-07-31T01:21:58;14.10;2.20
429;DHT22;201;48.758;9.290;2023-07-31T01:24:49;14.10;2.50
429;DHT22;201;48.758;9.290;2023-07-31T01:27:21;14.00;2.40
429;DHT22;201;48.758;9.290;2023-07-31T01:30:11;14.00;2.10
429;DHT22;201;48.758;9.290;2023-07-31T01:32:42;14.00;1.70
429;DHT22;201;48.758;9.290;2023-07-31T01:35:08;14.10;1.20
429;DHT22;201;48.758;9.290;2023-07-31T01:37:34;14.10;1.00
429;DHT22;201;48.758;9.290;2023-07-31T01:40:00;14.20;1.00
429;DHT22;201;48.758;9.290;2023-07-31T01:42:26;14.20;1.20
429;DHT22;201;48.758;9.290;2023-07-31T01:44:51;14.20;1.00
429;DHT22;201;48.758;9.290;2023-07-31T01:47:17;14.30;1.00
429;DHT22;201;48.758;9.290;2023-07-31T01:49:42;14.30;1.00
429;DHT22;201;48.758;9.290;2023-07-31T01:52:08;14.40;1.00
429;DHT22;201;48.758;9.290;2023-07-31T01:54:33;14.40;1.00
429;DHT22;201;48.758;9.290;2023-07-31T01:56:59;14.40;1.00
429;DHT22;201;48.758;9.290;2023-07-31T01:59:24;14.50;1.00
429;DHT22;201;48.758;9.290;2023-07-31T02:01:50;14.50;1.00
429;DHT22;201;48.758;9.290;2023-07-31T02:04:15;14.50;1.00
429;DHT22;201;48.758;9.290;2023-07-31T02:06:41;14.50;1.00
429;DHT22;201;48.758;9.290;2023-07-31T02:09:06;14.50;1.00
429;DHT22;201;48.758;9.290;2023-07-31T02:11:32;14.50;1.00
429;DHT22;201;48.758;9.290;2023-07-31T02:13:57;14.50;1.00
429;DHT22;201;48.758;9.290;2023-07-31T02:16:23;14.50;1.00
429;DHT22;201;48.758;9.290;2023-07-31T02:18:48;14.40;1.00
429;DHT22;201;48.758;9.290;2023-07-31T02:21:14;14.40;1.00
429;DHT22;201;48.758;9.290;2023-07-31T02:23:39;14.30;1.00
429;DHT22;201;48.758;9.290;2023-07-31T02:26:05;14.30;1.00
429;DHT22;201;48.758;9.290;2023-07-31T02:28:30;14.20;1.00
429;DHT22;201;48.758;9.290;2023-07-31T02:30:56;14.20;1.00
429;DHT22;201;48.758;9.290;2023-07-31T02:33:21;14.10;1.00
429;DHT22;201;48.758;9.290;2023-07-31T02:35:47;14.10;1.00
429;DHT22;201;48.758;9.290;2023-07-31T02:38:12;14.20;1.00
429;DHT22;201;48.758;9.290;2023-07-31T02:40:39;14.10;1.00
429;DHT22;201;48.758;9.290;2023-07-31T02:43:06;14.10;1.00
429;DHT22;201;48.758;9.290;2023-07-31T02:45:32;14.10;1.50
429;DHT22;201;48.758;9.290;2023-07-31T02:47:58;14.10;1.40
429;DHT22;201;48.758;9.290;2023-07-31T02:50:23;14.00;1.40
429;DHT22;201;48.758;9.290;2023-07-31T02:52:49;13.90;1.40
429;DHT22;201;48.758;9.290;2023-07-31T02:55:14;13.90;1.70
429;DHT22;201;48.758;9.290;2023-07-31T02:57:40;13.80;1.50
429;DHT22;201;48.758;9.290;2023-07-31T03:00:06;13.80;1.70
429;DHT22;201;48.758;9.290;2023-07-31T03:02:32;13.90;1.90
429;DHT22;201;48.758;9.290;2023-07-31T03:04:57;13.80;1.70
429;DHT22;201;48.758;9.290;2023-07-31T03:07:23;13.80;1.80
429;DHT22;201;48.758;9.290;2023-07-31T03:09:48;13.80;2.10
429;DHT22;201;48.758;9.290;2023-07-31T03:12:14;13.70;2.40
429;DHT22;201;48.758;9.290;2023-07-31T03:14:40;13.60;2.80
429;DHT22;201;48.758;9.290;2023-07-31T03:17:05;13.60;3.40
429;DHT22;201;48.758;9.290;2023-07-31T03:19:32;13.50;3.30
429;DHT22;201;48.758;9.290;2023-07-31T03:21:58;13.60;3.40
429;DHT22;201;48.758;9.290;2023-07-31T03:24:23;13.50;3.30
429;DHT22;201;48.758;9.290;2023-07-31T03:26:49;13.60;3.40
429;DHT22;201;48.758;9.290;2023-07-31T03:29:14;13.50;3.30
429;DHT22;201;48.758;9.290;2023-07-31T03:31:40;13.60;3.40
429;DHT22;201;48.758;9.290;2023-07-31T03:34:06;13.60;3.40
429;DHT22;201;48.758;9.290;2023-07-31T03:36:31;13.70;3.50
429;DHT22;201;48.758;9.290;2023-07-31T03:38:57;13.70;3.40
429;DHT22;201;48.758;9.290;2023-07-31T03:41:22;13.70;3.40
429;DHT22;201;48.758;9.290;2023-07-31T03:43:50;13.70;3.40
429;DHT22;201;48.758;9.290;2023-07-31T03:46:19;13.70;3.40
429;DHT22;201;48.758;9.290;2023-07-31T03:48:45;13.70;3.40
429;DHT22;201;48.758;9.290;2023-07-31T03:51:10;13.70;5.70
429;DHT22;201;48.758;9.290;2023-07-31T03:53:36;13.80;7.40
429;DHT22;201;48.758;9.290;2023-07-31T03:56:01;13.70;7.40
429;DHT22;201;48.758;9.290;2023-07-31T03:58:27;13.70;4.80
429;DHT22;201;48.758;9.290;2023-07-31T04:00:52;13.60;3.40
429;DHT22;201;48.758;9.290;2023-07-31T04:03:18;13.60;3.40
429;DHT22;201;48.758;9.290;2023-07-31T04:05:43;13.70;3.40
429;DHT22;201;48.758;9.290;2023-07-31T04:08:09;13.70;2.60
429;DHT22;201;48.758;9.290;2023-07-31T04:10:34;13.80;1.80
429;DHT22;201;48.758;9.290;2023-07-31T04:13:00;13.90;1.40
429;DHT22;201;48.758;9.290;2023-07-31T04:15:26;13.90;1.00
429;DHT22;201;48.758;9.290;2023-07-31T04:17:51;14.10;1.10
429;DHT22;201;48.758;9.290;2023-07-31T04:20:17;14.10;1.00
429;DHT22;201;48.758;9.290;2023-07-31T04:22:43;14.30;1.00
429;DHT22;201;48.758;9.290;2023-07-31T04:25:08;14.30;1.00
429;DHT22;201;48.758;9.290;2023-07-31T04:27:34;14.40;1.00
429;DHT22;201;48.758;9.290;2023-07-31T04:29:59;14.40;1.00
429;DHT22;201;48.758;9.290;2023-07-31T04:32:25;14.30;1.00
429;DHT22;201;48.758;9.290;2023-07-31T04:34:50;14.40;1.00
429;DHT22;201;48.758;9.290;2023-07-31T04:37:16;14.30;1.00
429;DHT22;201;48.758;9.290;2023-07-31T04:39:41;14.20;1.00
429;DHT22;201;48.758;9.290;2023-07-31T04:42:07;14.30;1.00
429;DHT22;201;48.758;9.290;2023-07-31T04:44:32;14.30;1.00
429;DHT22;201;48.758;9.290;2023-07-31T04:46:58;14.30;1.00
429;DHT22;201;48.758;9.290;2023-07-31T04:49:23;14.40;1.00
429;DHT22;201;48.758;9.290;2023-07-31T04:51:49;14.50;1.00
429;DHT22;201;48.758;9.290;2023-07-31T04:54:14;14.60;1.00
429;DHT22;201;48.758;9.290;2023-07-31T04:56:40;14.60;1.00
429;DHT22;201;48.758;9.290;2023-07-31T04:59:06;14.70;1.00
429;DHT22;201;48.758;9.290;2023-07-31T05:01:32;14.70;1.00
429;DHT22;201;48.758;9.290;2023-07-31T05:03:57;14.70;1.00
429;DHT22;201;48.758;9.290;2023-07-31T05:06:23;14.60;1.00
429;DHT22;201;48.758;9.290;2023-07-31T05:08:48;14.60;1.00
429;DHT22;201;48.758;9.290;2023-07-31T05:11:14;14.70;1.00
429;DHT22;201;48.758;9.290;2023-07-31T05:13:39;14.70;1.00
429;DHT22;201;48.758;9.290;2023-07-31T05:16:05;14.60;1.00
429;DHT22;201;48.758;9.290;2023-07-31T05:18:30;14.70;1.00
429;DHT22;201;48.758;9.290;2023-07-31T05:20:56;14.60;1.00
429;DHT22;201;48.758;9.290;2023-07-31T05:23:21;14.70;1.00
429;DHT22;201;48.758;9.290;2023-07-31T05:25:47;14.70;1.00
429;DHT22;201;48.758;9.290;2023-07-31T05:28:13;14.60;1.00
429;DHT22;201;48.758;9.290;2023-07-31T05:30:38;14.60;1.00
429;DHT22;201;48.758;9.290;2023-07-31T05:33:04;14.60;1.00
429;DHT22;201;48.758;9.290;2023-07-31T05:35:29;14.60;1.00
429;DHT22;201;48.758;9.290;2023-07-31T05:37:55;14.60;1.00
429;DHT22;201;48.758;9.290;2023-07-31T05:40:20;14.60;1.00
429;DHT22;201;48.758;9.290;2023-07-31T05:42:46;14.60;1.00
429;DHT22;201;48.758;9.290;2023-07-31T05:45:11;14.70;1.00
429;DHT22;201;48.758;9.290;2023-07-31T05:47:38;15.00;1.00
429;DHT22;201;48.758;9.290;2023-07-31T05:50:04;15.20;1.00
429;DHT22;201;48.758;9.290;2023-07-31T05:52:30;15.40;1.00
429;DHT22;201;48.758;9.290;2023-07-31T05:54:56;15.70;1.00
429;DHT22;201;48.758;9.290;2023-07-31T05:57:21;15.90;1.00
429;DHT22;201;48.758;9.290;2023-07-31T05:59:47;16.40;1.00
429;DHT22;201;48.758;9.290;2023-07-31T06:02:12;17.00;1.00
429;DHT22;201;48.758;9.290;2023-07-31T06:04:38;17.60;1.00
429;DHT22;201;48.758;9.290;2023-07-31T06:07:04;17.80;1.00
429;DHT22;201;48.758;9.290;2023-07-31T06:09:29;17.70;1.00
429;DHT22;201;48.758;9.290;2023-07-31T06:11:55;17.70;1.00
429;DHT22;201;48.758;9.290;2023-07-31T06:14:20;18.00;1.00
429;DHT22;201;48.758;9.290;2023-07-31T06:16:46;18.30;1.00
429;DHT22;201;48.758;9.290;2023-07-31T06:19:11;18.50;1.00
429;DHT22;201;48.758;9.290;2023-07-31T06:21:38;19.40;1.00
429;DHT22;201;48.758;9.290;2023-07-31T06:24:04;20.70;1.00
429;DHT22;201;48.758;9.290;2023-07-31T06:26:30;21.30;1.00
429;DHT22;201;48.758;9.290;2023-07-31T06:28:55;21.70;1.00
429;DHT22;201;48.758;9.290;2023-07-31T06:31:21;21.90;1.00
429;DHT22;201;48.758;9.290;2023-07-31T06:33:49;22.20;1.00
429;DHT22;201;48.758;9.290;2023-07-31T06:36:14;22.90;1.00
429;DHT22;201;48.758;9.290;2023-07-31T06:38:40;23.90;1.00
429;DHT22;201;48.758;9.290;2023-07-31T06:41:05;24.90;1.00
429;DHT22;201;48.758;9.290;2023-07-31T06:43:31;26.00;1.00
429;DHT22;201;48.758;9.290;2023-07-31T06:45:56;26.20;1.00
429;DHT22;201;48.758;9.290;2023-07-31T06:48:22;26.00;1.00
429;DHT22;201;48.758;9.290;2023-07-31T06:50:47;25.50;1.00
429;DHT22;201;48.758;9.290;2023-07-31T06:53:13;25.40;1.00
429;DHT22;201;48.758;9.290;2023-07-31T06:55:38;26.40;1.00
429;DHT22;201;48.758;9.290;2023-07-31T06:58:04;27.00;1.00
429;DHT22;201;48.758;9.290;2023-07-31T07:00:30;27.30;1.00
429;DHT22;201;48.758;9.290;2023-07-31T07:02:55;27.30;1.00
429;DHT22;201;48.758;9.290;2023-07-31T07:05:21;27.90;1.00
429;DHT22;201;48.758;9.290;2023-07-31T07:07:48;28.30;1.00
429;DHT22;201;48.758;9.290;2023-07-31T07:10:14;28.40;1.00
429;DHT22;201;48.758;9.290;2023-07-31T07:12:39;28.50;1.00
429;DHT22;201;48.758;9.290;2023-07-31T07:15:05;28.40;1.00
429;DHT22;201;48.758;9.290;2023-07-31T07:17:31;28.50;1.00
429;DHT22;201;48.758;9.290;2023-07-31T07:19:57;28.10;1.00
429;DHT22;201;48.758;9.290;2023-07-31T07:22:23;27.60;1.00
429;DHT22;201;48.758;9.290;2023-07-31T07:24:48;28.00;1.00
429;DHT22;201;48.758;9.290;2023-07-31T07:27:14;29.20;1.00
429;DHT22;201;48.758;9.290;2023-07-31T07:29:40;30.50;1.00
429;DHT22;201;48.758;9.290;2023-07-31T07:32:05;30.20;1.00
429;DHT22;201;48.758;9.290;2023-07-31T07:34:31;29.40;1.00
429;DHT22;201;48.758;9.290;2023-07-31T07:36:56;28.40;1.00
429;DHT22;201;48.758;9.290;2023-07-31T07:39:22;27.20;1.00
429;DHT22;201;48.758;9.290;2023-07-31T07:41:48;26.20;1.00
429;DHT22;201;48.758;9.290;2023-07-31T07:44:13;25.50;1.00
429;DHT22;201;48.758;9.290;2023-07-31T07:46:40;24.90;1.00
429;DHT22;201;48.758;9.290;2023-07-31T07:49:05;24.30;1.00
429;DHT22;201;48.758;9.290;2023-07-31T07:51:31;23.90;1.00
429;DHT22;201;48.758;9.290;2023-07-31T07:53:57;23.90;1.00
429;DHT22;201;48.758;9.290;2023-07-31T07:56:25;24.10;1.00
429;DHT22;201;48.758;9.290;2023-07-31T07:58:51;24.80;1.00
429;DHT22;201;48.758;9.290;2023-07-31T08:01:16;26.60;1.00
429;DHT22;201;48.758;9.290;2023-07-31T08:03:42;28.60;1.00
429;DHT22;201;48.758;9.290;2023-07-31T08:06:07;30.50;1.00
429;DHT22;201;48.758;9.290;2023-07-31T08:08:35;32.10;1.00
429;DHT22;201;48.758;9.290;2023-07-31T08:11:00;33.40;1.00
429;DHT22;201;48.758;9.290;2023-07-31T08:13:26;34.30;1.00
429;DHT22;201;48.758;9.290;2023-07-31T08:15:51;35.40;1.00
429;DHT22;201;48.758;9.290;2023-07-31T08:18:17;36.00;1.00
429;DHT22;201;48.758;9.290;2023-07-31T08:20:43;36.40;1.00
429;DHT22;201;48.758;9.290;2023-07-31T08:23:09;37.60;1.00
429;DHT22;201;48.758;9.290;2023-07-31T08:25:35;37.90;1.00
429;DHT22;201;48.758;9.290;2023-07-31T08:28:01;37.30;1.00
429;DHT22;201;48.758;9.290;2023-07-31T08:30:26;37.70;1.00
429;DHT22;201;48.758;9.290;2023-07-31T08:32:52;38.20;1.00
429;DHT22;201;48.758;9.290;2023-07-31T08:35:17;38.40;1.00
429;DHT22;201;48.758;9.290;2023-07-31T08:37:43;37.70;1.00
429;DHT22;201;48.758;9.290;2023-07-31T08:40:09;36.30;1.00
429;DHT22;201;48.758;9.290;2023-07-31T08:42:46;36.40;1.00
429;DHT22;201;48.758;9.290;2023-07-31T08:45:16;37.30;1.00
429;DHT22;201;48.758;9.290;2023-07-31T08:47:47;38.10;1.00
429;DHT22;201;48.758;9.290;2023-07-31T08:50:14;39.20;1.00
429;DHT22;201;48.758;9.290;2023-07-31T08:52:40;40.50;1.00
429;DHT22;201;48.758;9.290;2023-07-31T08:55:07;41.00;1.00
429;DHT22;201;48.758;9.290;2023-07-31T08:57:35;41.30;1.00
429;DHT22;201;48.758;9.290;2023-07-31T09:00:03;41.80;1.00
429;DHT22;201;48.758;9.290;2023-07-31T09:02:34;42.10;1.00
429;DHT22;201;48.758;9.290;2023-07-31T09:05:01;42.60;1.00
429;DHT22;201;48.758;9.290;2023-07-31T09:07:29;42.80;1.00
429;DHT22;201;48.758;9.290;2023-07-31T09:09:54;41.70;1.00
429;DHT22;201;48.758;9.290;2023-07-31T09:12:20;40.60;1.00
429;DHT22;201;48.758;9.290;2023-07-31T09:14:46;39.10;1.00
429;DHT22;201;48.758;9.290;2023-07-31T09:17:12;37.50;1.00
429;DHT22;201;48.758;9.290;2023-07-31T09:19:38;36.00;1.00
429;DHT22;201;48.758;9.290;2023-07-31T09:22:05;35.00;1.00
429;DHT22;201;48.758;9.290;2023-07-31T09:24:32;33.60;1.00
429;DHT22;201;48.758;9.290;2023-07-31T09:26:59;32.10;1.00
429;DHT22;201;48.758;9.290;2023-07-31T09:29:26;30.90;1.00
429;DHT22;201;48.758;9.290;2023-07-31T09:31:52;29.80;1.00
429;DHT22;201;48.758;9.290;2023-07-31T09:34:18;28.80;1.00
429;DHT22;201;48.758;9.290;2023-07-31T09:36:49;27.90;1.00
429;DHT22;201;48.758;9.290;2023-07-31T09:39:16;27.40;1.00
429;DHT22;201;48.758;9.290;2023-07-31T09:41:43;26.90;1.00
429;DHT22;201;48.758;9.290;2023-07-31T09:44:10;26.20;1.00
429;DHT22;201;48.758;9.290;2023-07-31T09:46:36;26.10;1.00
429;DHT22;201;48.758;9.290;2023-07-31T09:49:08;26.10;1.00
429;DHT22;201;48.758;9.290;2023-07-31T09:51:42;25.80;1.00
429;DHT22;201;48.758;9.290;2023-07-31T09:54:12;25.40;1.00
429;DHT22;201;48.758;9.290;2023-07-31T09:56:48;25.30;1.00
429;DHT22;201;48.758;9.290;2023-07-31T09:59:16;25.30;1.00
429;DHT22;201;48.758;9.290;2023-07-31T10:01:43;25.50;1.00
429;DHT22;201;48.758;9.290;2023-07-31T10:04:11;25.50;1.00
429;DHT22;201;48.758;9.290;2023-07-31T10:06:38;25.60;1.00
429;DHT22;201;48.758;9.290;2023-07-31T10:09:06;26.10;1.00
429;DHT22;201;48.758;9.290;2023-07-31T10:11:37;26.10;1.00
429;DHT22;201;48.758;9.290;2023-07-31T10:14:05;26.00;1.00
429;DHT22;201;48.758;9.290;2023-07-31T10:16:31;25.70;1.00
429;DHT22;201;48.758;9.290;2023-07-31T10:18:57;25.80;1.00
429;DHT22;201;48.758;9.290;2023-07-31T10:21:23;26.30;1.00
429;DHT22;201;48.758;9.290;2023-07-31T10:23:50;26.40;1.00
429;DHT22;201;48.758;9.290;2023-07-31T10:26:17;27.30;1.00
429;DHT22;201;48.758;9.290;2023-07-31T10:28:45;28.90;1.00
429;DHT22;201;48.758;9.290;2023-07-31T10:31:12;30.60;1.00
429;DHT22;201;48.758;9.290;2023-07-31T10:33:38;32.60;1.00
429;DHT22;201;48.758;9.290;2023-07-31T10:36:25;32.60;1.00
429;DHT22;201;48.758;9.290;2023-07-31T10:38:51;31.70;1.00
429;DHT22;201;48.758;9.290;2023-07-31T10:41:17;30.70;1.00
429;DHT22;201;48.758;9.290;2023-07-31T10:43:42;31.80;1.00
429;DHT22;201;48.758;9.290;2023-07-31T10:46:11;33.30;1.00
429;DHT22;201;48.758;9.290;2023-07-31T10:48:37;34.50;1.00
429;DHT22;201;48.758;9.290;2023-07-31T10:51:08;34.20;1.00
429;DHT22;201;48.758;9.290;2023-07-31T10:53:36;33.20;1.00
429;DHT22;201;48.758;9.290;2023-07-31T10:56:04;32.40;1.00
429;DHT22;201;48.758;9.290;2023-07-31T10:58:30;31.10;1.00
429;DHT22;201;48.758;9.290;2023-07-31T11:00:59;29.80;1.00
429;DHT22;201;48.758;9.290;2023-07-31T11:03:26;28.80;1.00
429;DHT22;201;48.758;9.290;2023-07-31T11:13:31;27.40;1.00
429;DHT22;201;48.758;9.290;2023-07-31T11:15:57;27.30;1.00
429;DHT22;201;48.758;9.290;2023-07-31T11:18:25;26.90;1.00
429;DHT22;201;48.758;9.290;2023-07-31T11:20:51;26.80;1.00
429;DHT22;201;48.758;9.290;2023-07-31T11:23:17;26.60;1.00
429;DHT22;201;48.758;9.290;2023-07-31T11:25:43;26.30;1.00
429;DHT22;201;48.758;9.290;2023-07-31T11:28:15;25.90;1.00
429;DHT22;201;48.758;9.290;2023-07-31T11:30:41;25.50;1.00
429;DHT22;201;48.758;9.290;2023-07-31T11:33:09;25.30;1.00
429;DHT22;201;48.758;9.290;2023-07-31T11:35:40;25.10;1.00
429;DHT22;201;48.758;9.290;2023-07-31T11:38:23;25.00;1.00
429;DHT22;201;48.758;9.290;2023-07-31T11:40:49;24.90;1.00
429;DHT22;201;48.758;9.290;2023-07-31T11:43:15;24.80;1.00
429;DHT22;201;48.758;9.290;2023-07-31T11:46:02;24.60;1.00
429;DHT22;201;48.758;9.290;2023-07-31T11:48:34;24.30;1.00
429;DHT22;201;48.758;9.290;2023-07-31T11:51:03;24.00;1.00
429;DHT22;201;48.758;9.290;2023-07-31T11:53:33;23.90;1.00
429;DHT22;201;48.758;9.290;2023-07-31T11:56:01;23.70;1.00
429;DHT22;201;48.758;9.290;2023-07-31T11:58:34;23.70;1.00
429;DHT22;201;48.758;9.290;2023-07-31T12:01:00;23.80;1.00
429;DHT22;201;48.758;9.290;2023-07-31T12:03:26;23.80;1.00
429;DHT22;201;48.758;9.290;2023-07-31T12:05:53;23.80;1.00
429;DHT22;201;48.758;9.290;2023-07-31T12:08:21;23.80;1.00
429;DHT22;201;48.758;9.290;2023-07-31T12:10:47;23.70;1.00
429;DHT22;201;48.758;9.290;2023-07-31T12:13:25;23.70;1.00
429;DHT22;201;48.758;9.290;2023-07-31T12:15:56;23.80;1.00
429;DHT22;201;48.758;9.290;2023-07-31T12:18:24;23.80;1.00
429;DHT22;201;48.758;9.290;2023-07-31T12:20:55;23.80;1.00
429;DHT22;201;48.758;9.290;2023-07-31T12:23:28;23.80;1.00
429;DHT22;201;48.758;9.290;2023-07-31T12:26:20;23.70;1.00
429;DHT22;201;48.758;9.290;2023-07-31T12:28:50;23.70;1.00
429;DHT22;201;48.758;9.290;2023-07-31T12:31:17;23.60;1.00
429;DHT22;201;48.758;9.290;2023-07-31T12:33:43;23.50;1.00
429;DHT22;201;48.758;9.290;2023-07-31T12:36:14;23.40;1.00
429;DHT22;201;48.758;9.290;2023-07-31T12:38:40;23.50;1.00
429;DHT22;201;48.758;9.290;2023-07-31T12:41:06;23.50;1.00
429;DHT22;201;48.758;9.290;2023-07-31T12:43:35;23.60;1.00
429;DHT22;201;48.758;9.290;2023-07-31T12:46:01;23.80;1.00
429;DHT22;201;48.758;9.290;2023-07-31T12:48:27;24.00;1.00
429;DHT22;201;48.758;9.290;2023-07-31T12:50:52;24.10;1.00
429;DHT22;201;48.758;9.290;2023-07-31T12:53:18;24.00;1.00
429;DHT22;201;48.758;9.290;2023-07-31T12:55:43;23.90;1.00
429;DHT22;201;48.758;9.290;2023-07-31T12:58:09;23.80;1.00
429;DHT22;201;48.758;9.290;2023-07-31T13:00:35;23.60;1.00
429;DHT22;201;48.758;9.290;2023-07-31T13:03:00;23.40;1.00
429;DHT22;201;48.758;9.290;2023-07-31T13:05:27;23.30;1.00
429;DHT22;201;48.758;9.290;2023-07-31T13:07:53;23.30;1.00
429;DHT22;201;48.758;9.290;2023-07-31T13:10:19;23.20;1.00
429;DHT22;201;48.758;9.290;2023-07-31T13:12:45;23.30;1.00
429;DHT22;201;48.758;9.290;2023-07-31T13:15:10;23.40;1.00
429;DHT22;201;48.758;9.290;2023-07-31T13:17:36;23.40;1.00
429;DHT22;201;48.758;9.290;2023-07-31T13:20:02;23.40;1.00
429;DHT22;201;48.758;9.290;2023-07-31T13:22:29;23.20;1.00
429;DHT22;201;48.758;9.290;2023-07-31T13:24:54;23.20;1.00
429;DHT22;201;48.758;9.290;2023-07-31T13:27:20;23.20;1.00
429;DHT22;201;48.758;9.290;2023-07-31T13:29:50;23.20;1.00
429;DHT22;201;48.758;9.290;2023-07-31T13:32:17;23.20;1.00
429;DHT22;201;48.758;9.290;2023-07-31T13:34:43;23.10;1.00
429;DHT22;201;48.758;9.290;2023-07-31T13:37:09;23.10;1.00
429;DHT22;201;48.758;9.290;2023-07-31T13:39:35;23.20;1.00
429;DHT22;201;48.758;9.290;2023-07-31T13:42:02;23.40;1.00
429;DHT22;201;48.758;9.290;2023-07-31T13:44:28;23.60;1.00
429;DHT22;201;48.758;9.290;2023-07-31T13:46:54;23.80;1.00
429;DHT22;201;48.758;9.290;2023-07-31T13:49:19;24.10;1.00
429;DHT22;201;48.758;9.290;2023-07-31T13:51:45;24.40;1.00
429;DHT22;201;48.758;9.290;2023-07-31T13:54:11;24.50;1.00
429;DHT22;201;48.758;9.290;2023-07-31T13:56:37;24.50;1.00
429;DHT22;201;48.758;9.290;2023-07-31T13:59:03;24.60;1.00
429;DHT22;201;48.758;9.290;2023-07-31T14:01:28;24.60;1.00
429;DHT22;201;48.758;9.290;2023-07-31T14:03:54;24.60;1.00
429;DHT22;201;48.758;9.290;2023-07-31T14:06:19;24.70;1.00
429;DHT22;201;48.758;9.290;2023-07-31T14:08:45;24.70;1.00
429;DHT22;201;48.758;9.290;2023-07-31T14:11:10;24.80;1.00
429;DHT22;201;48.758;9.290;2023-07-31T14:13:36;24.90;1.00
429;DHT22;201;48.758;9.290;2023-07-31T14:16:01;24.90;1.00
429;DHT22;201;48.758;9.290;2023-07-31T14:18:27;24.90;1.00
429;DHT22;201;48.758;9.290;2023-07-31T14:20:52;24.80;1.00
429;DHT22;201;48.758;9.290;2023-07-31T14:23:18;24.70;1.00
429;DHT22;201;48.758;9.290;2023-07-31T14:25:45;24.50;1.00
429;DHT22;201;48.758;9.290;2023-07-31T14:28:11;24.40;1.00
429;DHT22;201;48.758;9.290;2023-07-31T14:30:36;24.30;1.00
429;DHT22;201;48.758;9.290;2023-07-31T14:33:02;24.10;1.00
429;DHT22;201;48.758;9.290;2023-07-31T14:35:27;24.10;1.00
429;DHT22;201;48.758;9.290;2023-07-31T14:37:53;24.10;1.00
429;DHT22;201;48.758;9.290;2023-07-31T14:40:19;24.20;1.00
429;DHT22;201;48.758;9.290;2023-07-31T14:42:44;24.30;1.00
429;DHT22;201;48.758;9.290;2023-07-31T14:45:10;24.40;1.00
429;DHT22;201;48.758;9.290;2023-07-31T14:47:36;24.40;1.00
429;DHT22;201;48.758;9.290;2023-07-31T14:50:02;24.30;1.00
429;DHT22;201;48.758;9.290;2023-07-31T14:52:28;24.30;1.00
429;DHT22;201;48.758;9.290;2023-07-31T14:54:54;24.30;1.00
429;DHT22;201;48.758;9.290;2023-07-31T14:57:19;24.40;1.00
429;DHT22;201;48.758;9.290;2023-07-31T14:59:45;24.50;1.00
429;DHT22;201;48.758;9.290;2023-07-31T15:02:11;24.70;1.00
429;DHT22;201;48.758;9.290;2023-07-31T15:04:37;24.70;1.00
429;DHT22;201;48.758;9.290;2023-07-31T15:07:03;24.80;1.00
429;DHT22;201;48.758;9.290;2023-07-31T15:09:29;24.80;1.00
429;DHT22;201;48.758;9.290;2023-07-31T15:11:56;24.80;1.00
429;DHT22;201;48.758;9.290;2023-07-31T15:14:21;24.80;1.00
429;DHT22;201;48.758;9.290;2023-07-31T15:16:47;24.70;1.00
429;DHT22;201;48.758;9.290;2023-07-31T15:19:13;24.60;1.00
429;DHT22;201;48.758;9.290;2023-07-31T15:21:39;24.50;1.00
429;DHT22;201;48.758;9.290;2023-07-31T15:24:05;24.40;1.00
429;DHT22;201;48.758;9.290;2023-07-31T15:26:30;24.40;1.00
429;DHT22;201;48.758;9.290;2023-07-31T15:29:04;24.40;1.00
429;DHT22;201;48.758;9.290;2023-07-31T15:31:34;24.40;1.00
429;DHT22;201;48.758;9.290;2023-07-31T15:34:00;24.40;1.00
429;DHT22;201;48.758;9.290;2023-07-31T15:36:25;24.50;1.00
429;DHT22;201;48.758;9.290;2023-07-31T15:38:51;24.50;1.00
429;DHT22;201;48.758;9.290;2023-07-31T15:41:17;24.50;1.00
429;DHT22;201;48.758;9.290;2023-07-31T15:43:43;24.50;1.00
429;DHT22;201;48.758;9.290;2023-07-31T15:46:09;24.50;1.00
429;DHT22;201;48.758;9.290;2023-07-31T15:48:34;24.50;1.00
429;DHT22;201;48.758;9.290;2023-07-31T15:51:00;24.50;1.00
429;DHT22;201;48.758;9.290;2023-07-31T15:53:26;24.50;1.00
429;DHT22;201;48.758;9.290;2023-07-31T15:55:52;24.50;1.00
429;DHT22;201;48.758;9.290;2023-07-31T15:58:17;24.50;1.00
429;DHT22;201;48.758;9.290;2023-07-31T16:00:43;24.70;1.00
429;DHT22;201;48.758;9.290;2023-07-31T16:03:08;24.70;1.00
429;DHT22;201;48.758;9.290;2023-07-31T16:05:34;24.70;1.00
429;DHT22;201;48.758;9.290;2023-07-31T16:07:59;24.80;1.00
429;DHT22;201;48.758;9.290;2023-07-31T16:10:26;24.90;1.00
429;DHT22;201;48.758;9.290;2023-07-31T16:12:51;25.00;1.00
429;DHT22;201;48.758;9.290;2023-07-31T16:15:19;24.80;1.00
429;DHT22;201;48.758;9.290;2023-07-31T16:17:45;24.60;1.00
429;DHT22;201;48.758;9.290;2023-07-31T16:20:11;24.40;1.00
429;DHT22;201;48.758;9.290;2023-07-31T16:22:36;24.30;1.00
429;DHT22;201;48.758;9.290;2023-07-31T16:25:02;24.40;1.00
429;DHT22;201;48.758;9.290;2023-07-31T16:27:28;24.40;1.00
429;DHT22;201;48.758;9.290;2023-07-31T16:29:54;24.50;1.00
429;DHT22;201;48.758;9.290;2023-07-31T16:32:19;24.60;1.00
429;DHT22;201;48.758;9.290;2023-07-31T16:34:45;24.50;1.00
429;DHT22;201;48.758;9.290;2023-07-31T16:37:10;24.30;1.00
429;DHT22;201;48.758;9.290;2023-07-31T16:39:36;24.10;1.00
429;DHT22;201;48.758;9.290;2023-07-31T16:42:05;23.90;1.00
429;DHT22;201;48.758;9.290;2023-07-31T16:44:31;23.70;1.00
429;DHT22;201;48.758;9.290;2023-07-31T16:46:56;23.60;1.00
429;DHT22;201;48.758;9.290;2023-07-31T16:49:22;23.50;1.00
429;DHT22;201;48.758;9.290;2023-07-31T16:51:48;23.40;1.00
429;DHT22;201;48.758;9.290;2023-07-31T16:54:13;23.50;1.00